Baltimore, Maryland
Traffic Map
Current Weather Conditions
Baltimore, Maryland
Few Clouds
Few Clouds

Feels Like: 0°
Wind Chill: Ceiling: Unl
Heat Index: Visibility: 10mi
Dew Point: -7° Wind: 14mph
Humidity: 43% Direction: 300° (WNW)
Pressure: 30.3in Gusts: 0mph
Raw Report DataKBWI 052154Z 30012KT 10SM FEW055 04/M07 A3030 RMK AO2 SLP261 T00441072
Traffic Incident Summary
Active as of:
Severity:
Category:
InformationThere was an issue retrieving the traffic information for this location. Please try a different location or try again shortly.
Advertisements
Track Severe Weather on mobile